Time;durP1;ratioP1;P1;durP2;ratioP2;P2;SDS_P1;SDS_P2;PMS_P1;PMS_P2;Temp;Humidity;BMP_temperature;BMP_pressure;BME280_temperature;BME280_humidity;BME280_pressure;Samples;Min_cycle;Max_cycle;Signal;HPM_P1;HPM_P2
2021/06/14 00:00:57;;;;;;;9.20;5.67;;;14.40;99.90;;;;;;5071116;28;20218;-74
2021/06/14 00:03:22;;;;;;;15.47;5.17;;;14.30;99.90;;;;;;5052960;28;20171;-77
2021/06/14 00:05:49;;;;;;;11.03;5.23;;;14.20;99.90;;;;;;5060185;28;20445;-77
2021/06/14 00:08:17;;;;;;;10.00;5.60;;;14.30;99.90;;;;;;5058873;28;20182;-77
2021/06/14 00:10:44;;;;;;;7.10;5.60;;;14.50;99.90;;;;;;5064279;28;20461;-77
2021/06/14 00:13:11;;;;;;;6.90;5.10;;;14.50;99.90;;;;;;5067563;28;20417;-76
2021/06/14 00:15:52;;;;;;;8.40;4.80;;;14.40;99.90;;;;;;5069901;28;20421;-77
2021/06/14 00:18:20;;;;;;;10.63;5.87;;;14.20;99.90;;;;;;5066179;28;20405;-76
2021/06/14 00:21:01;;;;;;;8.90;5.27;;;14.20;99.90;;;;;;5065102;28;20486;-77
2021/06/14 00:23:29;;;;;;;8.17;5.53;;;14.10;99.90;;;;;;5066127;28;20401;-76
2021/06/14 00:25:56;;;;;;;6.53;5.60;;;14.10;99.90;;;;;;5067807;28;20494;-75
2021/06/14 00:28:21;;;;;;;8.70;6.17;;;14.40;99.90;;;;;;5065216;28;20413;-75
2021/06/14 00:30:50;;;;;;;11.23;6.60;;;14.50;99.90;;;;;;5064529;28;20444;-76
2021/06/14 00:33:16;;;;;;;13.10;6.40;;;14.40;99.90;;;;;;5064491;28;20171;-76
2021/06/14 00:35:44;;;;;;;9.20;6.23;;;14.40;99.90;;;;;;5060808;28;20404;-76
2021/06/14 00:38:10;;;;;;;9.33;5.17;;;14.20;99.90;;;;;;5062544;28;20163;-75
2021/06/14 00:40:36;;;;;;;10.87;5.63;;;14.10;99.90;;;;;;5060482;28;20437;-76
2021/06/14 00:43:02;;;;;;;9.03;6.23;;;14.00;99.90;;;;;;5061054;28;20435;-77
2021/06/14 00:45:31;;;;;;;9.70;5.50;;;14.00;99.90;;;;;;5066438;28;20175;-75
2021/06/14 00:48:00;;;;;;;8.67;5.70;;;14.20;99.90;;;;;;5071177;28;20401;-75
2021/06/14 00:50:48;;;;;;;9.97;5.83;;;14.20;99.90;;;;;;5071292;28;20461;-75
2021/06/14 00:53:17;;;;;;;10.63;5.83;;;14.40;99.90;;;;;;5076711;28;20421;-77
2021/06/14 00:55:45;;;;;;;10.53;6.60;;;14.20;99.90;;;;;;5055365;28;20420;-77
2021/06/14 00:58:10;;;;;;;10.07;5.67;;;14.10;99.90;;;;;;5077090;28;20452;-75
2021/06/14 01:00:37;;;;;;;8.20;6.40;;;14.00;99.90;;;;;;5076326;28;20413;-75
2021/06/14 01:03:03;;;;;;;9.87;6.23;;;13.90;99.90;;;;;;5074338;28;20251;-75
2021/06/14 01:05:32;;;;;;;11.73;6.10;;;14.10;99.90;;;;;;5071324;28;20478;-76
2021/06/14 01:07:57;;;;;;;10.07;6.20;;;14.30;99.90;;;;;;5070758;28;20424;-76
2021/06/14 01:10:23;;;;;;;8.53;5.57;;;14.30;99.90;;;;;;5070748;28;20808;-76
2021/06/14 01:13:22;;;;;;;9.70;5.30;;;14.10;99.90;;;;;;5071017;28;20175;-75
2021/06/14 01:15:58;;;;;;;8.83;6.07;;;14.00;99.90;;;;;;5071896;28;20410;-77
2021/06/14 01:18:43;;;;;;;12.20;6.30;;;13.90;99.90;;;;;;5070753;28;20409;-75
2021/06/14 01:21:12;;;;;;;10.53;6.37;;;13.90;99.90;;;;;;5071181;28;20936;-77
2021/06/14 01:23:55;;;;;;;8.70;6.80;;;13.90;99.90;;;;;;5073488;28;20413;-76
2021/06/14 01:26:22;;;;;;;14.03;6.80;;;13.90;99.90;;;;;;5074674;28;20473;-76
2021/06/14 01:28:54;;;;;;;8.47;5.73;;;14.00;99.90;;;;;;5075792;28;20465;-76
2021/06/14 01:31:25;;;;;;;6.93;5.00;;;13.90;99.90;;;;;;5072619;28;20439;-77
2021/06/14 01:33:51;;;;;;;6.90;5.57;;;13.80;99.90;;;;;;5071825;28;20440;-76
2021/06/14 01:36:26;;;;;;;9.67;6.10;;;13.80;99.90;;;;;;5075509;28;20465;-76
2021/06/14 01:38:52;;;;;;;10.20;5.57;;;13.70;99.90;;;;;;5075216;28;20181;-77
2021/06/14 01:41:20;;;;;;;9.30;6.07;;;13.80;99.90;;;;;;5056520;28;20520;-76
2021/06/14 01:43:46;;;;;;;8.87;5.37;;;13.90;99.90;;;;;;5075565;28;20432;-76
2021/06/14 01:46:16;;;;;;;12.57;6.80;;;14.10;99.90;;;;;;5076002;28;20402;-77
2021/06/14 01:48:43;;;;;;;10.93;5.63;;;13.90;99.90;;;;;;5074900;28;20473;-75
2021/06/14 01:51:11;;;;;;;8.87;6.43;;;14.00;99.90;;;;;;5075840;28;20430;-74
2021/06/14 01:53:38;;;;;;;10.80;5.90;;;14.00;99.90;;;;;;5075990;28;20473;-76
2021/06/14 02:06:53;;;;;;;9.67;5.77;;;14.00;99.90;;;;;;5125697;27;947225;-76
2021/06/14 02:09:24;;;;;;;9.00;5.07;;;13.90;99.90;;;;;;5130725;28;20523;-75
2021/06/14 02:12:04;;;;;;;7.67;5.90;;;13.90;99.90;;;;;;5114046;28;20491;-76
2021/06/14 02:14:32;;;;;;;11.37;5.93;;;14.10;99.90;;;;;;5123399;28;20466;-77
2021/06/14 02:17:04;;;;;;;7.83;5.23;;;14.10;99.90;;;;;;5108600;28;20441;-77
2021/06/14 02:19:31;;;;;;;11.67;5.50;;;14.00;99.90;;;;;;5075777;28;20423;-76
2021/06/14 02:21:57;;;;;;;11.10;6.50;;;14.00;99.90;;;;;;5111372;28;20455;-75
2021/06/14 02:24:22;;;;;;;12.80;6.50;;;14.00;99.90;;;;;;5129935;28;20410;-74
2021/06/14 02:26:48;;;;;;;17.10;6.73;;;13.80;99.90;;;;;;5129470;28;20411;-76
2021/06/14 02:29:15;;;;;;;11.07;5.53;;;13.90;99.90;;;;;;5129259;28;20173;-76
2021/06/14 02:31:40;;;;;;;9.57;6.60;;;14.00;99.90;;;;;;5128793;28;20195;-76
2021/06/14 02:34:07;;;;;;;7.30;6.33;;;13.90;99.90;;;;;;5128358;28;20442;-77
2021/06/14 02:36:35;;;;;;;6.10;5.50;;;13.80;99.90;;;;;;5128917;28;20176;-76
2021/06/14 02:39:05;;;;;;;8.80;5.93;;;13.80;99.90;;;;;;5129119;28;20840;-77
2021/06/14 02:41:31;;;;;;;9.63;6.30;;;13.70;99.90;;;;;;5128739;28;20415;-76
2021/06/14 02:43:56;;;;;;;9.50;5.57;;;13.70;99.90;;;;;;5109336;28;20415;-76
2021/06/14 02:46:22;;;;;;;10.83;6.40;;;13.70;99.90;;;;;;5126697;28;20498;-76
2021/06/14 02:48:50;;;;;;;7.03;6.33;;;13.80;99.90;;;;;;5128390;28;20162;-76
2021/06/14 02:51:18;;;;;;;11.33;6.27;;;13.90;99.90;;;;;;5127286;28;20423;-77
2021/06/14 02:54:03;;;;;;;8.17;5.50;;;13.90;99.90;;;;;;5127203;28;20406;-75
2021/06/14 02:56:30;;;;;;;5.57;4.83;;;13.90;99.90;;;;;;5128276;28;20493;-76
2021/06/14 02:58:56;;;;;;;11.83;6.40;;;13.80;99.90;;;;;;5127640;28;20450;-76
2021/06/14 03:01:22;;;;;;;8.37;5.67;;;13.90;99.90;;;;;;5128653;28;20431;-76
2021/06/14 03:03:49;;;;;;;11.23;6.20;;;14.00;99.90;;;;;;5127789;28;20422;-76
2021/06/14 03:06:16;;;;;;;12.60;6.20;;;13.90;99.90;;;;;;5120065;28;20441;-74
2021/06/14 03:08:43;;;;;;;9.80;6.00;;;13.80;99.90;;;;;;5114261;28;20414;-75
2021/06/14 03:11:09;;;;;;;11.50;7.23;;;13.80;99.90;;;;;;5113166;28;20424;-75
2021/06/14 03:13:35;;;;;;;11.27;6.87;;;14.00;99.90;;;;;;5112947;28;20738;-76
2021/06/14 03:16:02;;;;;;;9.30;6.47;;;13.90;99.90;;;;;;5113360;28;20477;-76
2021/06/14 03:18:28;;;;;;;10.77;6.77;;;14.00;99.90;;;;;;5112830;28;20550;-76
2021/06/14 03:20:56;;;;;;;8.60;6.30;;;13.90;99.90;;;;;;5113181;28;20423;-76
2021/06/14 03:23:22;;;;;;;9.50;5.80;;;14.00;99.90;;;;;;5113703;28;20418;-76
2021/06/14 03:25:49;;;;;;;10.50;5.97;;;14.10;99.90;;;;;;5114374;28;20411;-76
2021/06/14 03:28:16;;;;;;;9.20;5.70;;;14.00;99.90;;;;;;5114997;28;20225;-75
2021/06/14 03:30:42;;;;;;;6.10;5.17;;;14.00;99.90;;;;;;5115108;28;20485;-76
2021/06/14 03:33:10;;;;;;;7.93;5.50;;;14.00;99.90;;;;;;5113699;28;20437;-77
2021/06/14 03:35:36;;;;;;;7.93;4.87;;;13.90;99.90;;;;;;5111904;28;20451;-76
2021/06/14 03:38:03;;;;;;;11.50;5.90;;;14.10;99.90;;;;;;5110407;28;20949;-77
2021/06/14 03:40:29;;;;;;;8.13;4.77;;;14.10;99.90;;;;;;5111555;28;20186;-77
2021/06/14 03:43:03;;;;;;;6.13;5.10;;;14.30;99.90;;;;;;5112580;28;20717;-77
2021/06/14 03:45:29;;;;;;;7.77;5.27;;;14.30;99.90;;;;;;5112813;28;20491;-76
2021/06/14 03:47:56;;;;;;;10.50;6.40;;;14.40;99.90;;;;;;5114750;28;20466;-75
2021/06/14 03:50:22;;;;;;;11.73;5.50;;;14.30;99.90;;;;;;5114643;28;20423;-76
2021/06/14 03:52:48;;;;;;;13.00;6.23;;;14.40;99.90;;;;;;5112066;28;20459;-76
2021/06/14 03:55:13;;;;;;;8.23;5.70;;;14.50;99.90;;;;;;5112228;28;20190;-75
2021/06/14 03:57:39;;;;;;;10.30;5.60;;;14.40;99.90;;;;;;5111594;28;20230;-76
2021/06/14 04:00:11;;;;;;;13.63;6.33;;;14.40;99.90;;;;;;5110105;28;20170;-77
2021/06/14 04:02:37;;;;;;;9.63;5.90;;;14.40;99.90;;;;;;5109592;28;20403;-76
2021/06/14 04:05:04;;;;;;;8.70;6.17;;;14.60;99.90;;;;;;5108656;28;20426;-76
2021/06/14 04:07:30;;;;;;;8.30;5.97;;;14.60;99.90;;;;;;5108826;28;20811;-75
2021/06/14 04:09:59;;;;;;;9.67;6.13;;;14.70;99.90;;;;;;5112848;28;20403;-76
2021/06/14 04:12:28;;;;;;;9.17;6.30;;;14.80;99.90;;;;;;5109359;28;20678;-76
2021/06/14 04:14:54;;;;;;;19.17;7.67;;;14.90;99.90;;;;;;5116731;28;20483;-76
2021/06/14 04:17:20;;;;;;;10.50;5.67;;;15.70;99.90;;;;;;5113448;28;20454;-76
2021/06/14 04:19:45;;;;;;;8.67;6.00;;;16.70;99.90;;;;;;5112683;28;20173;-76
2021/06/14 04:22:11;;;;;;;8.63;5.90;;;17.30;99.90;;;;;;5112226;28;20420;-76
2021/06/14 04:24:36;;;;;;;12.43;6.87;;;17.80;99.90;;;;;;5112285;28;20185;-76
2021/06/14 04:27:02;;;;;;;7.93;4.83;;;18.40;99.90;;;;;;5111205;28;20179;-76
2021/06/14 04:29:28;;;;;;;8.50;5.27;;;19.00;99.90;;;;;;5111154;28;20183;-78
2021/06/14 04:31:53;;;;;;;8.03;5.50;;;19.30;99.90;;;;;;5097179;28;20425;-76
2021/06/14 04:34:19;;;;;;;6.70;4.60;;;19.40;99.90;;;;;;5095715;28;20187;-76
2021/06/14 04:36:45;;;;;;;14.03;5.80;;;19.20;99.90;;;;;;5096957;28;20245;-75
2021/06/14 04:39:11;;;;;;;6.87;5.67;;;19.30;99.90;;;;;;5096541;28;20437;-74
2021/06/14 04:41:36;;;;;;;9.83;6.13;;;19.60;99.90;;;;;;5099252;28;20217;-75
2021/06/14 04:44:02;;;;;;;8.70;4.87;;;20.10;99.90;;;;;;5083827;28;20186;-76
2021/06/14 04:46:27;;;;;;;8.67;5.80;;;20.60;99.90;;;;;;5106694;28;20184;-76
2021/06/14 04:48:53;;;;;;;9.20;7.13;;;20.00;99.90;;;;;;5105173;28;20234;-74
2021/06/14 04:51:18;;;;;;;8.87;6.40;;;19.50;99.90;;;;;;5100244;28;20204;-75
2021/06/14 04:53:45;;;;;;;8.37;5.03;;;19.10;99.90;;;;;;5108087;28;20651;-76
2021/06/14 04:56:11;;;;;;;12.30;5.70;;;18.90;99.90;;;;;;5107688;28;20282;-76
2021/06/14 04:58:36;;;;;;;10.67;6.23;;;19.10;99.90;;;;;;5087440;28;20418;-77
2021/06/14 05:01:03;;;;;;;11.90;6.80;;;19.00;99.90;;;;;;5105859;28;20562;-76
2021/06/14 05:03:28;;;;;;;10.33;6.03;;;19.10;99.90;;;;;;5102995;28;20168;-77
2021/06/14 05:05:54;;;;;;;8.87;5.67;;;19.20;99.90;;;;;;5097645;28;20422;-76
2021/06/14 05:08:19;;;;;;;6.97;5.70;;;19.40;99.90;;;;;;5078303;28;20274;-75
2021/06/14 05:10:46;;;;;;;8.60;5.37;;;20.00;99.90;;;;;;5097450;28;20190;-76
2021/06/14 05:13:11;;;;;;;7.80;5.03;;;19.90;99.90;;;;;;5097259;28;20250;-76
2021/06/14 05:15:37;;;;;;;8.80;5.30;;;20.30;99.90;;;;;;5097686;28;20460;-77
2021/06/14 05:18:03;;;;;;;9.33;6.07;;;20.20;99.90;;;;;;5079188;28;20195;-77
2021/06/14 05:20:30;;;;;;;8.67;5.17;;;20.20;99.90;;;;;;5098403;28;20695;-77
2021/06/14 05:22:59;;;;;;;6.67;4.63;;;20.90;99.90;;;;;;5079687;28;20173;-76
2021/06/14 05:25:25;;;;;;;8.67;5.70;;;20.80;99.90;;;;;;5077131;28;20414;-77
2021/06/14 05:27:51;;;;;;;8.00;5.10;;;21.10;99.90;;;;;;5096675;28;20491;-77
2021/06/14 05:30:17;;;;;;;5.63;4.63;;;21.50;99.90;;;;;;5096412;28;20437;-77
2021/06/14 05:32:44;;;;;;;11.00;5.60;;;21.00;99.90;;;;;;5097110;28;20517;-75
2021/06/14 05:35:10;;;;;;;5.50;4.80;;;21.20;99.90;;;;;;5094665;28;20581;-78
2021/06/14 05:37:36;;;;;;;7.67;4.33;;;21.60;99.90;;;;;;5094602;28;20411;-76
2021/06/14 05:40:03;;;;;;;9.93;4.60;;;21.40;99.90;;;;;;5094114;28;20527;-76
2021/06/14 05:42:29;;;;;;;13.27;5.80;;;21.50;99.90;;;;;;5095083;28;20833;-77
2021/06/14 05:44:55;;;;;;;9.30;4.40;;;21.40;99.90;;;;;;5095613;28;20410;-76
2021/06/14 05:47:22;;;;;;;10.50;4.77;;;21.80;99.90;;;;;;5094677;28;20172;-77
2021/06/14 05:49:47;;;;;;;9.53;5.20;;;22.50;99.90;;;;;;5095000;28;20421;-77
2021/06/14 05:52:13;;;;;;;6.50;5.23;;;21.60;99.90;;;;;;5094358;28;20936;-77
2021/06/14 05:54:38;;;;;;;8.60;5.07;;;21.10;99.90;;;;;;5093763;28;20205;-77
2021/06/14 05:57:05;;;;;;;7.07;5.33;;;21.80;99.90;;;;;;5094560;28;20248;-77
2021/06/14 05:59:30;;;;;;;8.70;5.33;;;21.90;99.90;;;;;;5094751;28;20167;-74
2021/06/14 06:01:56;;;;;;;7.00;4.50;;;21.80;99.90;;;;;;5093115;28;20515;-76
2021/06/14 06:04:21;;;;;;;7.70;4.97;;;22.40;99.90;;;;;;5095057;28;20161;-76
2021/06/14 06:06:47;;;;;;;6.80;4.67;;;22.80;99.90;;;;;;5095729;28;20266;-76
2021/06/14 06:09:12;;;;;;;5.63;4.50;;;22.70;99.90;;;;;;5093026;28;20181;-76
2021/06/14 06:11:38;;;;;;;7.73;3.87;;;22.20;99.90;;;;;;5093289;28;20189;-76
2021/06/14 06:14:04;;;;;;;7.63;3.97;;;21.90;99.90;;;;;;5092445;28;20701;-76
2021/06/14 06:16:29;;;;;;;6.40;4.00;;;23.40;99.90;;;;;;5092120;28;20248;-76
2021/06/14 06:18:55;;;;;;;5.83;4.47;;;23.10;99.40;;;;;;5092658;28;20203;-76
2021/06/14 06:21:21;;;;;;;5.70;4.10;;;22.90;98.60;;;;;;5092114;28;20216;-76
2021/06/14 06:23:47;;;;;;;6.30;3.80;;;22.50;98.60;;;;;;5093025;28;20196;-76
2021/06/14 06:26:13;;;;;;;7.20;4.17;;;22.60;99.60;;;;;;5092661;28;20414;-77
2021/06/14 06:28:38;;;;;;;6.97;3.77;;;23.80;98.70;;;;;;5093149;28;20185;-76
2021/06/14 06:31:04;;;;;;;6.33;4.30;;;23.30;97.70;;;;;;5093444;28;20199;-76
2021/06/14 06:33:29;;;;;;;6.40;4.10;;;23.10;97.80;;;;;;5092355;28;20529;-75
2021/06/14 06:35:55;;;;;;;6.67;4.00;;;23.80;98.00;;;;;;5091089;28;20201;-75
2021/06/14 06:38:20;;;;;;;8.13;4.00;;;24.10;95.70;;;;;;5091735;28;20326;-75
2021/06/14 06:40:45;;;;;;;5.47;3.33;;;23.60;96.80;;;;;;5091900;28;20188;-74
2021/06/14 06:43:11;;;;;;;5.87;3.90;;;23.80;97.10;;;;;;5095340;28;20634;-76
2021/06/14 06:45:37;;;;;;;7.20;3.83;;;25.10;96.10;;;;;;5095636;28;20180;-76
2021/06/14 06:48:03;;;;;;;5.93;3.97;;;24.60;95.80;;;;;;5095853;28;20291;-76
2021/06/14 06:50:29;;;;;;;4.33;3.50;;;24.10;95.90;;;;;;5095289;28;20280;-74
2021/06/14 06:52:54;;;;;;;9.30;4.10;;;24.30;96.70;;;;;;5095188;28;20431;-76
2021/06/14 06:55:21;;;;;;;11.10;3.83;;;25.60;94.80;;;;;;5096200;28;20193;-76
2021/06/14 06:57:47;;;;;;;4.77;3.77;;;25.80;93.70;;;;;;5095585;28;20244;-75
2021/06/14 07:00:15;;;;;;;6.33;3.60;;;26.10;91.70;;;;;;5095526;28;20851;-74
2021/06/14 07:02:41;;;;;;;5.50;3.93;;;25.20;94.00;;;;;;5095977;28;20263;-76
2021/06/14 07:05:07;;;;;;;5.70;3.70;;;24.40;93.60;;;;;;5095101;28;20441;-75
2021/06/14 07:07:33;;;;;;;8.77;4.00;;;24.30;94.40;;;;;;5095866;28;20168;-76
2021/06/14 07:09:59;;;;;;;5.73;3.67;;;24.40;93.90;;;;;;5095657;28;20411;-75
2021/06/14 07:12:25;;;;;;;8.10;3.30;;;23.00;94.90;;;;;;5095138;28;20191;-75
2021/06/14 07:14:50;;;;;;;4.27;3.10;;;24.00;94.60;;;;;;5077062;28;20481;-76
2021/06/14 07:17:16;;;;;;;9.07;4.20;;;25.80;92.60;;;;;;5095457;28;20439;-77
2021/06/14 07:19:41;;;;;;;9.73;4.90;;;24.70;92.70;;;;;;5095225;28;20168;-76
2021/06/14 07:22:07;;;;;;;8.57;5.03;;;24.40;92.60;;;;;;5095110;28;20196;-74
2021/06/14 07:24:32;;;;;;;5.53;3.27;;;23.80;94.60;;;;;;5095758;28;20177;-76
2021/06/14 07:26:58;;;;;;;4.77;3.93;;;24.90;93.30;;;;;;5096450;28;20223;-76
2021/06/14 07:29:24;;;;;;;4.90;3.40;;;24.80;91.70;;;;;;5094937;28;20170;-75
2021/06/14 07:31:49;;;;;;;6.40;3.90;;;25.40;92.80;;;;;;5094845;28;20193;-74
2021/06/14 07:34:14;;;;;;;7.00;3.00;;;27.60;90.20;;;;;;5094862;28;20573;-75
2021/06/14 07:36:46;;;;;;;9.40;3.37;;;25.50;90.90;;;;;;5099395;28;20654;-76
2021/06/14 07:39:15;;;;;;;4.07;3.50;;;26.50;91.20;;;;;;5082700;28;20233;-74
2021/06/14 07:41:44;;;;;;;10.00;3.90;;;25.60;91.70;;;;;;5081407;28;20522;-76
2021/06/14 07:44:10;;;;;;;4.73;3.30;;;25.90;91.50;;;;;;5098543;28;20403;-74
2021/06/14 07:46:35;;;;;;;7.30;4.40;;;25.70;91.30;;;;;;5097777;28;20411;-75
2021/06/14 07:49:01;;;;;;;6.07;4.10;;;25.30;91.20;;;;;;5078305;28;20169;-75
2021/06/14 07:51:27;;;;;;;7.17;3.90;;;25.10;92.00;;;;;;5095191;28;20316;-76
2021/06/14 07:53:53;;;;;;;5.67;3.50;;;25.50;92.60;;;;;;5094913;28;20203;-76
2021/06/14 07:56:19;;;;;;;3.03;2.80;;;25.50;90.90;;;;;;5094958;28;20709;-76
2021/06/14 07:58:46;;;;;;;5.70;2.90;;;25.60;91.30;;;;;;5095610;28;20760;-75
2021/06/14 08:01:12;;;;;;;6.50;4.33;;;27.00;89.30;;;;;;5094933;28;20431;-76
2021/06/14 08:03:38;;;;;;;4.00;3.20;;;27.30;86.10;;;;;;5095097;28;20400;-74
2021/06/14 08:06:05;;;;;;;6.10;3.33;;;29.10;80.40;;;;;;5095205;28;20465;-74
2021/06/14 08:08:31;;;;;;;3.27;2.97;;;27.70;85.10;;;;;;5094954;28;20403;-76
2021/06/14 08:10:57;;;;;;;5.67;3.00;;;27.60;82.90;;;;;;5077547;28;20470;-76
2021/06/14 08:13:22;;;;;;;5.70;3.70;;;24.90;89.80;;;;;;5099958;28;20908;-73
2021/06/14 08:15:48;;;;;;;4.90;3.30;;;25.80;88.10;;;;;;5101144;28;20201;-75
2021/06/14 08:18:34;;;;;;;4.70;2.63;;;25.60;88.00;;;;;;5080935;28;20173;-75
2021/06/14 08:26:13;;;;;;;5.47;2.93;;;25.50;88.30;;;;;;5094805;28;20490;-74
2021/06/14 08:28:38;;;;;;;4.43;2.70;;;26.00;90.00;;;;;;5094242;28;20432;-75
2021/06/14 08:31:04;;;;;;;3.37;2.70;;;27.40;83.60;;;;;;5096997;28;20193;-77
2021/06/14 08:33:31;;;;;;;3.47;2.70;;;26.70;80.40;;;;;;5094207;28;20168;-76
2021/06/14 08:35:57;;;;;;;4.00;2.60;;;27.40;81.50;;;;;;5093293;28;20442;-74
2021/06/14 08:38:23;;;;;;;7.10;2.93;;;27.10;79.00;;;;;;5093678;28;20418;-76
2021/06/14 08:40:48;;;;;;;5.23;3.40;;;26.40;82.30;;;;;;5094816;28;20189;-74
2021/06/14 08:43:14;;;;;;;4.77;2.40;;;25.80;80.10;;;;;;5093163;28;20166;-76
2021/06/14 08:45:42;;;;;;;4.10;2.50;;;27.50;80.40;;;;;;5074692;28;20169;-75
2021/06/14 08:48:10;;;;;;;4.30;2.90;;;27.90;75.70;;;;;;5092921;28;20185;-76
2021/06/14 08:50:38;;;;;;;3.57;2.53;;;26.60;78.30;;;;;;5094412;28;20830;-77
2021/06/14 08:53:05;;;;;;;4.43;2.77;;;28.20;77.50;;;;;;5099002;28;20415;-76
2021/06/14 08:55:30;;;;;;;4.73;3.03;;;27.60;78.90;;;;;;5094516;28;20458;-74
2021/06/14 08:57:56;;;;;;;5.80;3.83;;;27.30;76.70;;;;;;5094738;28;20407;-74
2021/06/14 09:00:25;;;;;;;4.97;3.40;;;25.30;80.50;;;;;;5097449;28;20182;-75
2021/06/14 09:02:53;;;;;;;3.50;2.47;;;26.70;82.50;;;;;;5101922;28;20399;-77
2021/06/14 09:05:21;;;;;;;5.03;3.47;;;27.90;79.30;;;;;;5105647;28;20423;-76
2021/06/14 09:07:51;;;;;;;8.87;3.53;;;28.00;78.40;;;;;;5095824;28;20408;-76
2021/06/14 09:10:37;;;;;;;4.93;3.37;;;27.40;78.40;;;;;;5092930;28;20430;-77
2021/06/14 09:13:18;;;;;;;6.20;3.03;;;27.40;79.30;;;;;;5092688;28;20797;-76
2021/06/14 09:15:46;;;;;;;3.40;2.40;;;26.60;81.30;;;;;;5093635;28;20447;-76
2021/06/14 09:18:25;;;;;;;3.73;3.33;;;26.90;81.00;;;;;;5093828;28;20415;-76
2021/06/14 09:20:57;;;;;;;3.13;2.40;;;28.10;79.20;;;;;;5094264;28;20852;-76
2021/06/14 09:23:23;;;;;;;3.30;2.80;;;26.90;78.90;;;;;;5095760;28;20399;-75
2021/06/14 09:25:49;;;;;;;4.10;2.87;;;26.00;80.30;;;;;;5098464;28;20414;-74
2021/06/14 09:28:16;;;;;;;5.10;3.30;;;26.00;81.40;;;;;;5099777;28;20403;-73
2021/06/14 09:30:42;;;;;;;6.43;3.63;;;25.40;80.10;;;;;;5102388;28;20460;-76
2021/06/14 09:33:19;;;;;;;7.70;3.37;;;26.90;82.00;;;;;;5102829;28;20446;-76
2021/06/14 09:35:45;;;;;;;6.97;3.30;;;27.40;77.10;;;;;;5098891;28;20196;-75
2021/06/14 09:38:16;;;;;;;4.30;3.00;;;27.10;79.30;;;;;;5077676;28;20564;-77
2021/06/14 09:40:46;;;;;;;3.30;3.00;;;26.80;75.80;;;;;;5096129;28;20423;-77
2021/06/14 09:43:31;;;;;;;3.40;2.70;;;26.70;80.20;;;;;;5093542;28;20453;-76
2021/06/14 09:45:59;;;;;;;4.43;3.23;;;27.70;77.00;;;;;;5093014;28;20412;-75
2021/06/14 09:48:29;;;;;;;4.50;3.10;;;26.20;79.10;;;;;;5091562;28;20443;-74
2021/06/14 09:50:57;;;;;;;5.03;3.00;;;27.40;75.70;;;;;;5091506;28;20756;-75
2021/06/14 09:53:26;;;;;;;6.20;3.30;;;27.10;75.20;;;;;;5091860;28;20548;-76
2021/06/14 09:55:54;;;;;;;4.90;2.80;;;27.10;76.90;;;;;;5074021;28;20539;-75
2021/06/14 09:58:22;;;;;;;4.93;2.60;;;26.30;77.30;;;;;;5091896;28;20433;-75
2021/06/14 10:00:57;;;;;;;5.17;2.40;;;25.80;79.20;;;;;;5091846;28;20473;-73
2021/06/14 10:03:41;;;;;;;5.57;2.90;;;26.10;79.20;;;;;;5091499;28;20757;-74
2021/06/14 10:06:07;;;;;;;4.53;2.70;;;26.30;79.00;;;;;;5091001;28;20500;-75
2021/06/14 10:08:33;;;;;;;4.13;2.80;;;25.60;79.50;;;;;;5091046;28;20443;-75
2021/06/14 10:11:00;;;;;;;3.57;2.73;;;26.20;80.70;;;;;;5091102;28;21132;-76
2021/06/14 10:13:28;;;;;;;4.70;2.70;;;26.10;80.70;;;;;;5091326;28;20417;-73
2021/06/14 10:15:59;;;;;;;4.90;2.83;;;26.10;78.60;;;;;;5091546;28;20969;-74
2021/06/14 10:18:34;;;;;;;4.27;3.03;;;26.10;79.80;;;;;;5095440;28;20492;-75
2021/06/14 10:21:04;;;;;;;5.20;3.30;;;26.40;75.00;;;;;;5095332;28;20441;-76
2021/06/14 10:23:31;;;;;;;5.73;2.97;;;26.00;75.10;;;;;;5095363;28;20417;-74
2021/06/14 10:25:57;;;;;;;5.13;3.70;;;25.70;78.30;;;;;;5095405;28;20564;-75
2021/06/14 10:28:24;;;;;;;5.17;3.43;;;25.00;79.90;;;;;;5095491;28;20406;-75
2021/06/14 10:30:52;;;;;;;3.03;2.73;;;24.60;80.10;;;;;;5095484;28;20518;-75
2021/06/14 10:33:21;;;;;;;3.80;3.30;;;24.70;80.90;;;;;;5096399;28;20921;-75
2021/06/14 10:35:47;;;;;;;3.27;2.60;;;25.20;81.00;;;;;;5095355;28;20803;-75
2021/06/14 10:38:13;;;;;;;4.50;3.00;;;25.10;82.10;;;;;;5095277;28;20405;-74
2021/06/14 10:40:39;;;;;;;2.97;2.50;;;25.10;79.90;;;;;;5094933;28;20189;-76
2021/06/14 10:43:05;;;;;;;4.17;2.80;;;25.20;82.80;;;;;;5096123;28;20952;-74
2021/06/14 10:45:31;;;;;;;4.50;2.80;;;25.10;82.90;;;;;;5076523;28;20419;-74
2021/06/14 10:47:58;;;;;;;4.87;2.40;;;25.30;80.70;;;;;;5094841;28;20409;-75
2021/06/14 10:50:26;;;;;;;3.90;3.30;;;25.40;82.50;;;;;;5094942;28;20449;-74
2021/06/14 10:52:54;;;;;;;3.47;3.17;;;24.80;82.20;;;;;;5094811;28;20444;-75
2021/06/14 10:55:25;;;;;;;3.90;2.77;;;24.90;79.90;;;;;;5094573;28;20478;-75
2021/06/14 10:57:51;;;;;;;5.27;2.80;;;24.70;80.40;;;;;;5094555;28;20423;-74
2021/06/14 11:00:22;;;;;;;8.80;3.80;;;24.70;81.20;;;;;;5094250;28;20429;-74
2021/06/14 11:03:06;;;;;;;3.30;2.83;;;24.50;79.80;;;;;;5094287;28;20207;-74
2021/06/14 11:05:34;;;;;;;4.27;2.60;;;24.90;81.50;;;;;;5094419;28;20432;-74
2021/06/14 11:08:18;;;;;;;5.70;2.80;;;24.50;79.20;;;;;;5076258;28;20421;-76
2021/06/14 11:11:06;;;;;;;4.77;2.80;;;23.90;79.90;;;;;;5094497;28;20431;-75
2021/06/14 11:13:32;;;;;;;3.13;2.50;;;23.70;81.70;;;;;;5094727;28;20412;-76
2021/06/14 11:16:01;;;;;;;3.40;3.03;;;24.00;81.60;;;;;;5094992;28;20454;-75
2021/06/14 11:18:28;;;;;;;4.20;2.70;;;24.60;80.40;;;;;;5094392;28;20465;-76
2021/06/14 11:21:07;;;;;;;5.27;3.17;;;25.30;80.40;;;;;;5075667;28;20450;-75
2021/06/14 11:23:32;;;;;;;3.27;2.77;;;25.50;78.80;;;;;;5093819;28;20451;-76
2021/06/14 11:25:58;;;;;;;2.90;2.67;;;25.50;79.20;;;;;;5093819;28;20413;-73
2021/06/14 11:28:36;;;;;;;4.00;2.83;;;25.20;76.50;;;;;;5093557;28;20197;-74
2021/06/14 11:31:13;;;;;;;3.60;2.37;;;24.40;77.60;;;;;;5093665;28;20430;-76
2021/06/14 11:33:39;;;;;;;3.23;2.43;;;24.90;79.60;;;;;;5093749;28;20488;-74
2021/06/14 11:36:12;;;;;;;2.30;2.10;;;25.20;79.70;;;;;;5075387;28;20886;-74
2021/06/14 11:38:38;;;;;;;4.00;2.50;;;25.50;76.30;;;;;;5075556;28;20197;-74
2021/06/14 11:41:03;;;;;;;2.63;1.80;;;24.90;78.00;;;;;;5093633;28;20434;-74
2021/06/14 11:43:29;;;;;;;5.43;2.80;;;24.80;78.30;;;;;;5093898;28;20193;-75
2021/06/14 11:45:57;;;;;;;2.37;2.17;;;24.90;78.50;;;;;;5094121;28;20172;-75
2021/06/14 11:48:30;;;;;;;7.93;2.60;;;25.10;78.50;;;;;;5093885;28;20177;-74
2021/06/14 11:51:18;;;;;;;2.53;2.30;;;25.20;77.50;;;;;;5094214;28;20567;-73
2021/06/14 11:53:45;;;;;;;5.80;3.13;;;25.00;77.70;;;;;;5093869;28;20413;-75
2021/06/14 11:56:12;;;;;;;3.40;2.20;;;25.00;75.80;;;;;;5093655;28;20789;-75
2021/06/14 11:58:41;;;;;;;3.20;2.37;;;25.40;77.90;;;;;;5093549;28;20400;-76
2021/06/14 12:01:07;;;;;;;2.80;2.40;;;25.50;76.70;;;;;;5093130;28;20437;-76
2021/06/14 12:03:32;;;;;;;3.57;2.57;;;24.80;76.30;;;;;;5093801;28;20416;-76
2021/06/14 12:05:57;;;;;;;3.83;2.23;;;25.00;77.80;;;;;;5093014;28;20191;-74
2021/06/14 12:08:25;;;;;;;4.37;2.80;;;25.40;77.90;;;;;;5093053;28;20632;-74
2021/06/14 12:10:54;;;;;;;3.53;2.37;;;25.50;77.90;;;;;;5093026;28;20197;-75
2021/06/14 12:13:21;;;;;;;4.03;2.37;;;25.70;76.90;;;;;;5092894;28;20438;-75
2021/06/14 12:15:48;;;;;;;2.60;2.00;;;25.80;76.60;;;;;;5092497;28;20539;-76
2021/06/14 12:18:15;;;;;;;3.47;2.43;;;25.20;77.00;;;;;;5092598;28;20408;-74
2021/06/14 12:20:43;;;;;;;3.80;2.80;;;25.00;75.80;;;;;;5074455;28;20434;-76
2021/06/14 12:23:15;;;;;;;3.90;3.10;;;25.30;75.50;;;;;;5092815;28;20404;-74
2021/06/14 12:25:46;;;;;;;2.57;2.37;;;25.20;78.40;;;;;;5092740;28;20489;-74
2021/06/14 12:28:15;;;;;;;4.10;2.30;;;25.40;77.30;;;;;;5074667;28;20418;-75
2021/06/14 12:30:42;;;;;;;3.40;2.50;;;25.20;77.00;;;;;;5093096;28;20430;-76
2021/06/14 12:33:08;;;;;;;2.80;2.17;;;25.40;78.20;;;;;;5092698;28;20398;-75
2021/06/14 12:35:34;;;;;;;4.33;2.50;;;25.80;77.00;;;;;;5092536;28;20527;-75
2021/06/14 12:38:10;;;;;;;4.03;2.53;;;25.70;75.50;;;;;;5092438;28;20247;-75
2021/06/14 12:40:38;;;;;;;4.50;2.10;;;25.60;76.00;;;;;;5092032;28;20187;-76
2021/06/14 12:43:06;;;;;;;2.40;1.97;;;25.70;76.20;;;;;;5092665;28;20435;-75
2021/06/14 12:45:33;;;;;;;4.80;2.83;;;25.60;75.90;;;;;;5092598;28;20413;-75
2021/06/14 12:48:03;;;;;;;3.57;2.43;;;25.70;75.80;;;;;;5092498;28;20415;-75
2021/06/14 12:50:31;;;;;;;2.50;1.73;;;25.90;75.20;;;;;;5092101;28;20435;-75
2021/06/14 12:52:58;;;;;;;3.20;2.07;;;25.80;74.90;;;;;;5092745;28;20490;-76
2021/06/14 12:55:30;;;;;;;5.67;1.90;;;25.60;74.40;;;;;;5092320;28;20479;-75
2021/06/14 12:57:57;;;;;;;2.40;1.90;;;25.50;74.50;;;;;;5092587;28;20495;-75
2021/06/14 13:00:28;;;;;;;3.33;2.40;;;25.50;74.30;;;;;;5092609;28;20419;-76
2021/06/14 13:02:55;;;;;;;3.33;2.20;;;25.70;73.40;;;;;;5092810;28;20595;-76
2021/06/14 13:05:30;;;;;;;2.90;1.70;;;25.80;72.70;;;;;;5092713;28;20434;-76